Time;durP1;ratioP1;P1;durP2;ratioP2;P2;SDS_P1;SDS_P2;PMS_P1;PMS_P2;Temp;Humidity;BMP_temperature;BMP_pressure;BME280_temperature;BME280_humidity;BME280_pressure;Samples;Min_cycle;Max_cycle;Signal;HPM_P1;HPM_P2
2022/05/11 00:08:41;;;;;;;27.60;11.80;;;;;;;11.77;51.89;98671.23;432642;1273;98866;-45
2022/05/11 00:18:48;;;;;;;29.30;13.70;;;;;;;11.76;52.21;98668.03;432450;1273;111467;-44
2022/05/11 00:28:55;;;;;;;28.10;13.10;;;;;;;11.73;52.51;98658.92;432421;1271;107801;-46
2022/05/11 00:39:02;;;;;;;27.40;13.70;;;;;;;11.62;52.79;98652.93;432316;1274;98035;-46
2022/05/11 00:59:43;;;;;;;21.00;12.80;;;;;;;11.48;53.19;98639.16;432566;1271;99250;-45
2022/05/11 01:09:50;;;;;;;25.40;13.50;;;;;;;11.44;53.32;98629.30;432487;1271;111260;-45
2022/05/11 01:19:57;;;;;;;22.20;13.20;;;;;;;11.44;53.47;98626.70;432403;1271;109115;-44
2022/05/11 01:30:09;;;;;;;26.80;13.10;;;;;;;11.44;53.90;98619.08;432550;1271;98026;-45
2022/05/11 01:40:17;;;;;;;42.30;14.30;;;;;;;11.47;54.20;98613.40;432581;1271;108532;-46
2022/05/11 01:50:25;;;;;;;25.50;13.00;;;;;;;11.54;54.40;98609.23;433114;1260;99289;-42
2022/05/11 02:00:32;;;;;;;23.30;13.50;;;;;;;11.62;54.64;98603.91;432395;1273;112411;-45
2022/05/11 02:10:40;;;;;;;22.50;13.00;;;;;;;11.68;54.85;98599.30;432224;1273;109003;-46
2022/05/11 02:20:47;;;;;;;23.10;13.30;;;;;;;11.73;54.84;98593.70;432214;1273;98015;-42
2022/05/11 02:30:56;;;;;;;22.40;12.90;;;;;;;11.68;54.89;98582.83;432177;1273;108887;-42
2022/05/11 02:41:05;;;;;;;28.50;13.70;;;;;;;11.75;55.05;98579.43;432021;1274;98446;-44
2022/05/11 02:51:13;;;;;;;27.50;14.10;;;;;;;11.73;55.09;98568.87;432466;1270;112435;-44
2022/05/11 03:01:23;;;;;;;25.10;14.20;;;;;;;11.69;55.51;98564.46;432618;1271;109180;-44
2022/05/11 03:21:38;;;;;;;33.20;13.70;;;;;;;11.66;56.33;98558.38;432539;1271;108794;-43
2022/05/11 03:41:50;;;;;;;23.60;14.80;;;;;;;11.74;57.15;98560.45;432433;1270;112198;-45
2022/05/11 03:51:58;;;;;;;25.80;14.10;;;;;;;11.93;57.13;98558.11;432466;1271;109037;-42
2022/05/11 04:02:05;;;;;;;21.30;12.90;;;;;;;12.42;57.21;98553.62;432498;1271;99255;-45
2022/05/11 04:12:13;;;;;;;23.60;14.00;;;;;;;12.77;56.90;98551.78;432553;1271;108678;-46
2022/05/11 04:22:20;;;;;;;22.60;14.40;;;;;;;12.90;56.89;98546.42;432555;1271;98033;-44
2022/05/11 04:32:27;;;;;;;22.90;14.10;;;;;;;12.99;57.22;98538.41;432578;1271;112598;-45
2022/05/11 04:42:34;;;;;;;20.20;12.30;;;;;;;13.31;57.26;98529.93;432369;1270;107812;-45
2022/05/11 04:52:42;;;;;;;22.40;12.90;;;;;;;13.72;57.17;98529.29;432609;1271;98844;-43
2022/05/11 05:02:48;;;;;;;21.40;12.80;;;;;;;14.62;56.95;98537.91;432533;1271;108512;-42
2022/05/11 05:12:56;;;;;;;23.20;12.60;;;;;;;15.13;56.06;98543.35;432666;1271;99266;-45
2022/05/11 05:23:03;;;;;;;22.60;12.00;;;;;;;15.15;55.80;98545.64;432683;1271;112721;-42
2022/05/11 05:33:10;;;;;;;21.50;10.20;;;;;;;15.77;55.57;98545.39;432524;1271;108887;-45
2022/05/11 05:43:17;;;;;;;18.60;9.50;;;;;;;16.82;54.92;98547.28;432600;1271;97968;-43
2022/05/11 05:53:23;;;;;;;17.20;9.40;;;;;;;17.23;54.10;98550.77;432476;1273;109308;-45
2022/05/11 06:03:33;;;;;;;23.70;10.50;;;;;;;18.05;53.36;98554.13;432435;1271;98633;-42
2022/05/11 06:13:45;;;;;;;25.80;10.20;;;;;;;18.28;52.97;98552.39;432441;1271;254621;-45
2022/05/11 06:34:00;;;;;;;17.70;7.00;;;;;;;20.13;51.71;98556.26;432630;1272;99267;-47
2022/05/11 06:44:08;;;;;;;12.40;6.20;;;;;;;21.12;50.58;98562.55;432452;1271;108911;-42
2022/05/11 07:04:41;;;;;;;7.00;5.50;;;;;;;23.46;47.79;98563.14;432537;1273;111520;-44
2022/05/11 07:14:48;;;;;;;9.50;5.00;;;;;;;24.20;46.42;98560.41;432340;1271;109554;-44
2022/05/11 07:24:56;;;;;;;7.80;4.50;;;;;;;24.73;45.14;98550.45;432564;1271;98049;-42
2022/05/11 07:45:10;;;;;;;8.00;4.90;;;;;;;25.84;43.13;98538.83;432585;1271;99161;-44
2022/05/11 07:55:20;;;;;;;6.70;4.90;;;;;;;26.18;42.58;98529.73;432656;1271;114713;-47
2022/05/11 08:05:29;;;;;;;10.50;4.60;;;;;;;26.46;41.75;98520.66;432456;1271;108625;-45
2022/05/11 08:15:37;;;;;;;8.70;4.90;;;;;;;26.78;41.10;98516.73;432509;1272;99264;-43
2022/05/11 08:25:46;;;;;;;5.00;4.40;;;;;;;27.27;40.56;98513.48;432424;1271;109222;-46
2022/05/11 08:35:56;;;;;;;6.50;4.70;;;;;;;27.69;39.49;98511.77;432592;1271;99269;-43
2022/05/11 09:06:20;;;;;;;23.10;5.40;;;;;;;28.29;36.88;98504.48;432624;1271;99366;-46
2022/05/11 09:16:37;;;;;;;7.30;4.40;;;;;;;28.18;36.12;98497.76;432555;1272;107706;-46
2022/05/11 09:26:46;;;;;;;8.70;5.80;;;;;;;28.38;36.06;98498.98;432586;1271;99289;-43
2022/05/11 09:47:01;;;;;;;7.90;4.30;;;;;;;27.93;34.76;98500.10;432536;1269;108324;-42
2022/05/11 10:07:36;;;;;;;12.90;4.80;;;;;;;28.55;34.01;98492.02;432469;1271;109011;-42
2022/05/11 10:28:11;;;;;;;13.10;4.90;;;;;;;28.81;33.39;98474.36;432466;1271;112437;-46
2022/05/11 10:38:21;;;;;;;11.90;5.80;;;;;;;28.82;32.64;98464.83;432614;1271;107735;-42
2022/05/11 10:48:35;;;;;;;8.80;4.90;;;;;;;28.92;32.55;98462.35;432628;1271;99259;-45
2022/05/11 10:59:16;;;;;;;8.80;4.30;;;;;;;29.26;32.30;98451.58;432449;1271;108943;-41
2022/05/11 11:09:24;;;;;;;11.60;4.60;;;;;;;29.36;31.81;98445.48;432554;1273;99254;-42
2022/05/11 11:19:32;;;;;;;11.20;5.00;;;;;;;29.44;32.19;98439.42;432564;1271;112727;-42
2022/05/11 11:30:00;;;;;;;5.10;4.30;;;;;;;28.89;31.73;98435.05;432566;1271;107693;-42
2022/05/11 11:40:27;;;;;;;10.00;4.20;;;;;;;28.91;32.04;98422.90;432690;1273;98043;-43
2022/05/11 11:50:48;;;;;;;11.10;4.60;;;;;;;28.64;31.40;98422.96;432592;1272;109171;-48
2022/05/11 12:21:41;;;;;;;56.40;6.40;;;;;;;28.51;31.28;98409.92;432506;1271;108877;-48
2022/05/11 12:31:51;;;;;;;4.80;4.30;;;;;;;28.46;31.36;98402.95;432505;1271;99281;-43
2022/05/11 12:42:00;;;;;;;10.30;4.30;;;;;;;28.72;31.30;98401.70;432585;1271;108913;-43
2022/05/11 12:52:15;;;;;;;6.50;4.50;;;;;;;29.01;30.65;98387.02;432737;1271;99264;-44
2022/05/11 13:02:31;;;;;;;9.60;4.30;;;;;;;28.99;30.11;98388.14;432476;1271;112589;-43
2022/05/11 13:12:40;;;;;;;10.60;4.70;;;;;;;28.87;30.45;98379.19;432563;1271;109243;-45
2022/05/11 13:32:59;;;;;;;10.60;4.70;;;;;;;28.34;31.32;98369.74;432729;1271;108726;-43
2022/05/11 14:03:35;;;;;;;11.50;4.60;;;;;;;28.16;31.50;98336.35;432794;1271;109048;-41
2022/05/11 14:23:49;;;;;;;7.00;4.30;;;;;;;28.05;31.32;98319.33;432515;1271;108996;-46
2022/05/11 14:33:56;;;;;;;39.60;5.60;;;;;;;27.53;31.13;98308.79;432669;1271;99250;-44
2022/05/11 14:44:02;;;;;;;4.80;4.10;;;;;;;26.95;31.55;98297.98;432521;1271;111622;-42
2022/05/11 14:54:09;;;;;;;11.40;4.20;;;;;;;27.03;31.85;98290.00;432621;1271;108574;-46
2022/05/11 15:04:14;;;;;;;7.00;5.30;;;;;;;26.84;32.18;98292.16;432531;1271;99278;-43
2022/05/11 15:14:26;;;;;;;7.10;4.70;;;;;;;26.72;32.68;98290.58;432603;1272;108758;-47
2022/05/11 15:24:33;;;;;;;7.20;4.30;;;;;;;26.67;32.79;98286.31;432585;1271;99252;-40
2022/05/11 15:34:46;;;;;;;10.10;5.00;;;;;;;26.48;32.98;98276.92;432529;1271;112125;-46
2022/05/11 15:55:00;;;;;;;10.40;4.50;;;;;;;26.32;33.66;98264.19;432598;1272;99363;-41
2022/05/11 16:05:04;;;;;;;10.60;5.70;;;;;;;26.31;34.05;98258.83;432552;1271;108548;-41
2022/05/11 16:25:23;;;;;;;14.60;5.60;;;;;;;26.16;34.35;98247.84;432562;1273;112387;-47
2022/05/11 16:35:31;;;;;;;63.30;8.70;;;;;;;25.96;34.63;98247.23;432465;1269;109008;-45
2022/05/11 16:45:39;;;;;;;7.70;6.10;;;;;;;25.75;34.99;98239.39;432670;1271;99254;-45
2022/05/11 16:55:49;;;;;;;10.30;5.80;;;;;;;25.57;35.36;98232.45;432587;1271;108899;-42
2022/05/11 17:05:57;;;;;;;12.90;6.50;;;;;;;25.40;35.60;98229.86;432463;1271;99369;-41
2022/05/11 17:16:04;;;;;;;10.40;6.50;;;;;;;25.19;36.18;98232.25;432496;1271;112085;-46
2022/05/11 17:26:14;;;;;;;20.80;7.40;;;;;;;24.95;36.72;98231.34;432452;1271;107849;-45
2022/05/11 17:36:21;;;;;;;9.70;8.00;;;;;;;24.71;36.89;98225.98;432614;1271;98857;-43
2022/05/11 17:46:28;;;;;;;20.20;8.80;;;;;;;24.50;37.47;98228.02;432582;1273;108934;-44
2022/05/11 17:56:36;;;;;;;13.10;9.30;;;;;;;24.17;37.91;98229.56;432677;1271;99279;-42
2022/05/11 18:06:43;;;;;;;13.20;7.90;;;;;;;23.72;38.44;98233.59;432700;1272;112430;-41
2022/05/11 18:16:50;;;;;;;16.90;7.30;;;;;;;23.41;38.93;98241.06;432163;1271;683483;-45
2022/05/11 18:26:56;;;;;;;18.70;8.30;;;;;;;23.01;39.53;98242.25;432593;1271;99261;-41
2022/05/11 18:37:04;;;;;;;17.20;10.40;;;;;;;22.44;40.35;98244.63;432499;1271;108794;-43
2022/05/11 18:47:12;;;;;;;15.50;8.80;;;;;;;21.95;41.09;98249.30;432415;1271;99270;-44
2022/05/11 18:57:20;;;;;;;16.60;9.90;;;;;;;21.57;41.76;98257.84;432542;1271;112889;-44
2022/05/11 19:07:28;;;;;;;15.40;11.60;;;;;;;21.28;42.40;98260.63;432520;1271;108425;-44
2022/05/11 19:17:34;;;;;;;18.20;10.80;;;;;;;21.00;43.08;98266.11;432548;1271;98072;-44
2022/05/11 19:27:43;;;;;;;15.40;11.60;;;;;;;20.76;43.48;98263.27;432500;1271;109428;-46
2022/05/11 19:37:50;;;;;;;12.70;9.50;;;;;;;20.54;43.90;98260.52;432590;1271;98835;-46
2022/05/11 19:47:58;;;;;;;15.00;9.70;;;;;;;20.32;44.43;98258.77;432520;1271;112396;-44
2022/05/11 20:08:11;;;;;;;12.50;7.90;;;;;;;20.16;44.87;98246.66;432539;1273;98464;-42
2022/05/11 20:18:19;;;;;;;17.70;7.60;;;;;;;20.20;44.75;98249.41;432660;1271;107708;-41
2022/05/11 20:38:30;;;;;;;13.70;6.90;;;;;;;20.13;44.67;98243.13;432603;1271;112062;-45
2022/05/11 20:48:38;;;;;;;8.50;7.20;;;;;;;20.06;44.55;98244.46;432441;1271;109275;-42
2022/05/11 20:58:45;;;;;;;10.80;6.30;;;;;;;19.98;44.71;98234.63;432478;1271;98985;-46
2022/05/11 21:08:52;;;;;;;14.30;6.70;;;;;;;19.86;44.78;98231.35;432550;1272;108965;-43
2022/05/11 21:19:00;;;;;;;16.10;6.90;;;;;;;19.71;44.94;98228.44;432632;1271;98299;-44
2022/05/11 21:29:07;;;;;;;8.10;6.00;;;;;;;19.71;45.08;98230.74;432558;1271;112523;-44
2022/05/11 21:39:14;;;;;;;6.30;5.70;;;;;;;19.83;44.81;98224.59;432381;1273;108875;-43
2022/05/11 21:49:22;;;;;;;7.40;5.60;;;;;;;19.88;44.66;98220.63;432540;1272;99296;-42
2022/05/11 21:59:27;;;;;;;6.40;5.20;;;;;;;19.81;44.76;98216.52;432460;1271;108556;-44
2022/05/11 22:09:34;;;;;;;7.00;5.20;;;;;;;19.71;44.66;98214.50;432684;1271;99346;-43
2022/05/11 22:19:41;;;;;;;7.90;5.60;;;;;;;19.68;44.86;98207.30;432347;1271;112361;-47
2022/05/11 22:29:49;;;;;;;7.60;5.00;;;;;;;19.67;44.93;98203.63;432415;1271;109406;-42
2022/05/11 22:39:56;;;;;;;18.80;5.70;;;;;;;19.65;44.98;98199.79;432470;1271;99268;-47
2022/05/11 22:50:04;;;;;;;10.40;5.90;;;;;;;19.64;45.08;98191.28;432451;1272;108988;-45
2022/05/11 23:00:11;;;;;;;;;;;;;;;19.59;45.34;98189.08;432692;1273;99285;-48
2022/05/11 23:10:19;;;;;;;8.40;5.30;;;;;;;19.56;45.24;98181.51;432587;1271;112465;-44
2022/05/11 23:20:28;;;;;;;12.50;6.10;;;;;;;19.50;45.41;98176.70;432448;1271;108392;-44
2022/05/11 23:30:36;;;;;;;5.60;5.10;;;;;;;19.41;45.44;98174.65;432586;1271;98037;-47
2022/05/11 23:40:44;;;;;;;8.40;5.00;;;;;;;19.30;45.69;98166.00;432548;1271;109483;-48
2022/05/11 23:50:50;;;;;;;8.50;5.10;;;;;;;19.22;45.78;98166.23;432497;1271;99270;-46
